עמוד ראשי
METAR-TAF:

METAR-TAF

שדות תעופה :

False Pass, אלסקה, ארצות הברית

קו רוחב: 54-50-51N, קו אורך: 163-24-37W, גובה: 6מטר

תצפית מזג אוויר נוכחית

הדו"ח נערך לפני 5דקות, בשעה 19:56 UTC
רוח 10קשר מכיוון דרום/דרום-מזרח
טמפרטורת 8 צלסיוס
לחות 93%
לחץ 1011 hPa
ראות: 16.1קילומטר
מעונן בגובה 1400רגל

METAR: PAKF 171956Z AUTO 15010KT 10SM OVC014 08/07 A2985 RMK AO2 RAE48 SLP106 P0000 T00830067

זמן: 12:01 (20:01 UTC)


TAF: חסר

תצפיות ותחזיות מזג אוויר לגבי יותר מ- 4,000 שדות תעופה ברחבי העולם. דוחות METAR ו- TAF.

התחנות הזמינות מסומנות בנקודות צהובות ואדומות על גבי המפה.

העבר את העכבר לנקודה הצבעונית על מנת לראות את שם התחנה.

לאחר מכן, לחץ כדי לראות את תוכן ואת תחזיות מזג האוויר.

כדי לשנות את המפה: לחץ על הכפתורים הירוקים עם הפלוס השחור כדי להתקרב; על הכפתור הירוק עם המקף כדי להתרחק; או בחיצים הירוקים למפות סמוכות.


METAR-TAF: